Time;durP1;ratioP1;P1;durP2;ratioP2;P2;SDS_P1;SDS_P2;PMS_P1;PMS_P2;Temp;Humidity;BMP_temperature;BMP_pressure;BME280_temperature;BME280_humidity;BME280_pressure;Samples;Min_cycle;Max_cycle;Signal;HPM_P1;HPM_P2
2021/06/05 00:01:26;;;;;;;83.30;66.17;;;18.10;99.90;;;;;;5261308;27;20519;-59
2021/06/05 00:03:54;;;;;;;91.87;75.07;;;18.00;99.90;;;;;;5260634;27;20153;-59
2021/06/05 00:06:21;;;;;;;82.70;67.30;;;17.90;99.90;;;;;;5260551;27;20108;-60
2021/06/05 00:08:48;;;;;;;102.73;83.77;;;17.80;99.90;;;;;;5262544;27;20123;-63
2021/06/05 00:11:18;;;;;;;70.93;60.20;;;17.70;99.90;;;;;;5262164;27;20434;-60
2021/06/05 00:13:47;;;;;;;78.87;63.27;;;17.70;99.90;;;;;;5261665;27;20519;-59
2021/06/05 00:16:16;;;;;;;69.80;58.93;;;17.90;99.90;;;;;;5260602;27;20111;-60
2021/06/05 00:18:43;;;;;;;97.33;80.23;;;17.90;99.90;;;;;;5260167;27;20135;-59
2021/06/05 00:21:09;;;;;;;86.47;68.97;;;17.80;99.90;;;;;;5261953;27;20149;-60
2021/06/05 00:23:36;;;;;;;90.47;72.37;;;17.70;99.90;;;;;;5258223;27;107073;-60
2021/06/05 00:26:04;;;;;;;98.27;75.70;;;17.60;99.90;;;;;;5262142;27;20154;-61
2021/06/05 00:28:33;;;;;;;99.87;75.97;;;17.60;99.90;;;;;;5261039;27;20122;-59
2021/06/05 00:31:00;;;;;;;105.27;80.17;;;17.60;99.90;;;;;;5261780;27;20429;-60
2021/06/05 00:33:27;;;;;;;111.47;83.93;;;17.60;99.90;;;;;;5261229;27;20108;-61
2021/06/05 00:35:54;;;;;;;97.50;75.07;;;17.60;99.90;;;;;;5261424;27;20546;-61
2021/06/05 00:38:21;;;;;;;99.93;75.47;;;17.50;99.90;;;;;;5261000;27;20158;-61
2021/06/05 00:40:50;;;;;;;95.43;75.20;;;17.50;99.90;;;;;;5260907;27;20118;-60
2021/06/05 00:43:19;;;;;;;99.20;75.77;;;17.60;99.90;;;;;;5261896;27;20107;-60
2021/06/05 00:45:48;;;;;;;91.37;71.70;;;17.60;99.90;;;;;;5260933;27;20500;-60
2021/06/05 00:48:15;;;;;;;97.33;75.10;;;17.60;99.90;;;;;;5263362;27;20107;-61
2021/06/05 00:50:43;;;;;;;102.47;76.97;;;17.60;99.90;;;;;;5260853;27;20107;-60
2021/06/05 00:53:11;;;;;;;103.57;75.80;;;17.60;99.90;;;;;;5263427;27;20103;-59
2021/06/05 00:55:42;;;;;;;104.93;77.17;;;17.60;99.90;;;;;;5260438;27;20149;-60
2021/06/05 00:58:09;;;;;;;94.43;71.60;;;17.60;99.90;;;;;;5262375;27;20409;-60
2021/06/05 01:00:41;;;;;;;105.67;75.07;;;17.70;99.90;;;;;;5260805;27;20114;-60
2021/06/05 01:03:09;;;;;;;116.00;80.53;;;17.60;99.90;;;;;;5263196;27;20193;-60
2021/06/05 01:05:37;;;;;;;112.83;76.90;;;17.60;99.90;;;;;;5261332;27;20107;-62
2021/06/05 01:08:16;;;;;;;117.87;79.57;;;17.50;99.90;;;;;;5260652;27;20145;-60
2021/06/05 01:10:44;;;;;;;125.37;84.90;;;17.50;99.90;;;;;;5260767;27;20153;-61
2021/06/05 01:13:18;;;;;;;115.77;74.37;;;17.50;99.90;;;;;;5260658;27;20111;-60
2021/06/05 01:15:50;;;;;;;130.77;79.37;;;17.50;99.90;;;;;;5261399;27;20112;-62
2021/06/05 01:18:23;;;;;;;124.17;77.97;;;17.50;99.90;;;;;;5260744;27;20137;-60
2021/06/05 01:21:02;;;;;;;115.20;75.33;;;17.50;99.90;;;;;;5262161;27;20559;-60
2021/06/05 01:23:40;;;;;;;123.27;77.37;;;17.50;99.90;;;;;;5262202;27;20420;-63
2021/06/05 01:26:19;;;;;;;115.33;74.33;;;17.60;99.90;;;;;;5261576;27;20115;-61
2021/06/05 01:28:54;;;;;;;112.53;70.23;;;17.60;99.90;;;;;;5260085;27;20666;-60
2021/06/05 01:31:24;;;;;;;115.50;71.87;;;17.60;99.90;;;;;;5260707;27;20503;-60
2021/06/05 01:33:55;;;;;;;108.33;67.70;;;17.60;99.90;;;;;;5261299;27;20119;-61
2021/06/05 01:36:23;;;;;;;100.93;68.83;;;17.60;99.90;;;;;;5261742;27;20142;-59
2021/06/05 01:38:52;;;;;;;106.70;67.63;;;17.70;99.90;;;;;;5260781;27;20172;-59
2021/06/05 01:41:22;;;;;;;106.90;68.83;;;17.70;99.90;;;;;;5260606;27;20111;-61
2021/06/05 01:43:50;;;;;;;111.73;72.20;;;17.70;99.90;;;;;;5260483;27;20528;-59
2021/06/05 01:46:20;;;;;;;109.93;68.37;;;17.70;99.90;;;;;;5260763;27;20107;-58
2021/06/05 01:48:47;;;;;;;103.90;62.63;;;17.80;99.90;;;;;;5260642;27;20508;-59
2021/06/05 01:51:17;;;;;;;98.17;64.60;;;17.80;99.90;;;;;;5260402;27;20130;-59
2021/06/05 01:53:49;;;;;;;107.77;66.60;;;17.80;99.90;;;;;;5260815;27;20130;-61
2021/06/05 01:56:21;;;;;;;106.30;64.83;;;17.80;99.90;;;;;;5261899;27;20119;-59
2021/06/05 01:58:50;;;;;;;116.63;69.57;;;17.80;99.90;;;;;;5260627;27;20111;-59
2021/06/05 02:01:17;;;;;;;104.30;65.07;;;17.90;99.90;;;;;;5262006;27;20115;-59
2021/06/05 02:03:47;;;;;;;97.13;60.50;;;17.80;99.90;;;;;;5262654;27;20103;-60
2021/06/05 02:06:13;;;;;;;99.07;62.03;;;17.90;99.90;;;;;;5262901;27;20107;-59
2021/06/05 02:08:39;;;;;;;100.70;65.30;;;17.90;99.90;;;;;;5260348;27;20119;-59
2021/06/05 02:11:13;;;;;;;103.40;62.37;;;17.90;99.90;;;;;;5262340;27;20118;-59
2021/06/05 02:13:43;;;;;;;120.43;68.63;;;17.80;99.90;;;;;;5261543;27;20114;-62
2021/06/05 02:16:14;;;;;;;101.03;60.67;;;17.70;99.90;;;;;;5262088;27;20130;-60
2021/06/05 02:18:44;;;;;;;102.73;60.63;;;17.60;99.90;;;;;;5260492;27;20134;-60
2021/06/05 02:21:14;;;;;;;109.10;64.50;;;17.70;99.90;;;;;;5260291;27;20121;-61
2021/06/05 02:23:45;;;;;;;111.67;66.20;;;17.60;99.90;;;;;;5259727;27;20107;-61
2021/06/05 02:26:14;;;;;;;107.00;64.53;;;17.50;99.90;;;;;;5261177;27;20547;-59
2021/06/05 02:28:41;;;;;;;85.43;54.43;;;17.60;99.90;;;;;;5262598;27;20157;-60
2021/06/05 02:31:10;;;;;;;85.40;54.40;;;17.70;99.90;;;;;;5260216;27;20114;-59
2021/06/05 02:33:38;;;;;;;93.70;57.83;;;17.60;99.90;;;;;;5259210;27;20111;-60
2021/06/05 02:36:09;;;;;;;86.50;53.53;;;17.70;99.90;;;;;;5259682;27;20115;-59
2021/06/05 02:38:37;;;;;;;74.80;47.83;;;17.70;99.90;;;;;;5261085;27;20107;-58
2021/06/05 02:41:07;;;;;;;75.67;47.17;;;17.70;99.90;;;;;;5261992;27;20107;-60
2021/06/05 02:43:34;;;;;;;71.23;46.77;;;17.70;99.90;;;;;;5262831;27;20126;-60
2021/06/05 02:46:05;;;;;;;68.27;46.77;;;17.70;99.90;;;;;;5259659;27;20443;-62
2021/06/05 02:48:42;;;;;;;75.77;47.90;;;17.70;99.90;;;;;;5260158;27;20116;-59
2021/06/05 02:51:09;;;;;;;86.80;51.93;;;17.60;99.90;;;;;;5260218;27;20168;-59
2021/06/05 02:53:35;;;;;;;74.30;48.13;;;17.50;99.90;;;;;;5261028;27;20171;-59
2021/06/05 02:56:01;;;;;;;71.83;45.93;;;17.60;99.90;;;;;;5259110;27;20169;-59
2021/06/05 02:58:36;;;;;;;74.43;47.13;;;17.50;99.90;;;;;;5256801;27;20134;-59
2021/06/05 03:01:05;;;;;;;71.03;45.67;;;17.60;99.90;;;;;;5257684;27;20146;-58
2021/06/05 03:03:36;;;;;;;74.20;47.87;;;17.50;99.90;;;;;;5256443;27;20531;-61
2021/06/05 03:06:09;;;;;;;75.10;46.90;;;17.50;99.90;;;;;;5258459;27;20169;-61
2021/06/05 03:08:38;;;;;;;79.70;47.57;;;17.50;99.90;;;;;;5256686;27;20123;-58
2021/06/05 03:11:08;;;;;;;68.90;44.90;;;17.40;99.90;;;;;;5259187;27;20573;-61
2021/06/05 03:13:35;;;;;;;72.37;44.90;;;17.40;99.90;;;;;;5260185;27;20532;-61
2021/06/05 03:16:06;;;;;;;67.03;44.80;;;17.40;99.90;;;;;;5260088;27;20112;-62
2021/06/05 03:18:34;;;;;;;75.57;46.07;;;17.50;99.90;;;;;;5260254;27;20416;-59
2021/06/05 03:21:00;;;;;;;68.20;44.83;;;17.50;99.90;;;;;;5260196;27;20115;-61
2021/06/05 03:23:31;;;;;;;70.73;47.80;;;17.50;99.90;;;;;;5261704;27;20443;-60
2021/06/05 03:25:58;;;;;;;66.10;42.97;;;17.40;99.90;;;;;;5260699;27;20139;-59
2021/06/05 03:28:28;;;;;;;71.57;46.63;;;17.40;99.90;;;;;;5263799;27;20141;-59
2021/06/05 03:30:55;;;;;;;69.30;43.73;;;17.40;99.90;;;;;;5261652;27;20126;-60
2021/06/05 03:33:22;;;;;;;66.03;41.07;;;17.40;99.90;;;;;;5261466;27;20108;-59
2021/06/05 03:35:49;;;;;;;61.33;39.87;;;17.60;99.90;;;;;;5261400;27;20180;-59
2021/06/05 03:38:16;;;;;;;63.83;41.40;;;17.60;99.90;;;;;;5260979;27;20115;-59
2021/06/05 03:40:44;;;;;;;66.10;43.03;;;17.50;99.90;;;;;;5260849;27;20138;-59
2021/06/05 03:43:11;;;;;;;60.83;39.77;;;17.60;99.90;;;;;;5263397;27;20147;-60
2021/06/05 03:45:37;;;;;;;57.07;39.93;;;17.60;99.90;;;;;;5260810;27;20133;-61
2021/06/05 03:48:09;;;;;;;56.80;38.50;;;17.60;99.90;;;;;;5260405;27;20149;-59
2021/06/05 03:50:38;;;;;;;71.17;43.30;;;17.70;99.90;;;;;;5261406;27;20166;-61
2021/06/05 03:53:05;;;;;;;61.00;42.30;;;17.70;99.90;;;;;;5261275;27;20123;-60
2021/06/05 03:55:31;;;;;;;59.10;40.57;;;17.70;99.90;;;;;;5260927;27;20112;-59
2021/06/05 03:58:00;;;;;;;70.83;45.73;;;17.70;99.90;;;;;;5263285;27;20107;-60
2021/06/05 04:00:31;;;;;;;72.00;43.67;;;17.70;99.90;;;;;;5262208;27;20555;-59
2021/06/05 04:02:58;;;;;;;76.90;47.53;;;17.50;99.90;;;;;;5262514;27;20145;-60
2021/06/05 04:05:24;;;;;;;81.13;49.60;;;17.50;99.90;;;;;;5261248;27;20122;-61
2021/06/05 04:07:51;;;;;;;68.23;42.40;;;17.40;99.90;;;;;;5260912;27;20111;-60
2021/06/05 04:10:18;;;;;;;65.53;43.27;;;17.40;99.90;;;;;;5260836;27;20121;-62
2021/06/05 04:12:45;;;;;;;66.57;42.53;;;17.30;99.90;;;;;;5260505;27;20134;-60
2021/06/05 04:15:15;;;;;;;73.13;46.87;;;17.50;99.90;;;;;;5260716;27;20412;-58
2021/06/05 04:17:42;;;;;;;70.57;47.43;;;17.50;99.90;;;;;;5259774;27;20108;-62
2021/06/05 04:20:11;;;;;;;58.20;40.23;;;17.60;99.90;;;;;;5259965;27;20129;-60
2021/06/05 04:22:37;;;;;;;65.40;43.37;;;17.40;99.90;;;;;;5263016;27;20123;-59
2021/06/05 04:25:05;;;;;;;74.73;46.47;;;17.50;99.90;;;;;;5262992;27;20216;-59
2021/06/05 04:27:31;;;;;;;58.37;39.27;;;17.40;99.90;;;;;;5260687;27;20107;-61
2021/06/05 04:29:57;;;;;;;65.27;44.50;;;17.50;99.90;;;;;;5260799;27;20107;-59
2021/06/05 04:32:25;;;;;;;67.33;43.17;;;17.70;99.90;;;;;;5261013;27;20563;-58
2021/06/05 04:34:51;;;;;;;61.10;39.70;;;17.50;99.90;;;;;;5260690;27;20111;-61
2021/06/05 04:37:18;;;;;;;58.20;39.60;;;17.70;99.90;;;;;;5260805;27;20122;-59
2021/06/05 04:39:44;;;;;;;50.53;35.17;;;17.90;99.90;;;;;;5260941;27;20107;-59
2021/06/05 04:42:10;;;;;;;53.57;36.03;;;18.00;99.90;;;;;;5261943;27;20129;-62
2021/06/05 04:44:37;;;;;;;50.23;35.53;;;18.00;99.90;;;;;;5263356;27;20563;-59
2021/06/05 04:47:04;;;;;;;53.63;36.17;;;18.10;99.90;;;;;;5260825;27;20154;-61
2021/06/05 04:49:32;;;;;;;50.50;35.10;;;18.10;99.90;;;;;;5260935;27;20140;-59
2021/06/05 04:51:58;;;;;;;53.20;36.77;;;18.10;99.90;;;;;;5261493;27;20142;-59
2021/06/05 04:54:24;;;;;;;54.77;38.03;;;18.10;99.90;;;;;;5260818;27;20115;-61
2021/06/05 04:56:56;;;;;;;48.80;34.50;;;18.10;99.90;;;;;;5263163;27;20111;-59
2021/06/05 04:59:22;;;;;;;45.87;32.97;;;18.20;99.90;;;;;;5261300;27;20106;-61
2021/06/05 05:01:49;;;;;;;45.33;30.90;;;18.30;99.90;;;;;;5260751;27;20463;-62
2021/06/05 05:04:16;;;;;;;49.87;34.60;;;18.30;99.90;;;;;;5262682;27;20150;-59
2021/06/05 05:06:44;;;;;;;52.07;36.63;;;18.30;99.90;;;;;;5260430;27;20469;-61
2021/06/05 05:09:12;;;;;;;50.10;36.20;;;18.30;99.90;;;;;;5260559;27;20149;-59
2021/06/05 05:11:39;;;;;;;44.77;31.13;;;18.30;99.90;;;;;;5260210;27;20138;-59
2021/06/05 05:14:05;;;;;;;45.53;31.50;;;18.20;99.90;;;;;;5260875;27;20108;-60
2021/06/05 05:16:32;;;;;;;53.17;34.60;;;18.20;99.90;;;;;;5259719;27;20143;-59
2021/06/05 05:18:59;;;;;;;38.93;29.40;;;18.00;99.90;;;;;;5261870;27;20427;-63
2021/06/05 05:21:26;;;;;;;44.63;32.10;;;17.90;99.90;;;;;;5259419;27;20143;-62
2021/06/05 05:23:55;;;;;;;38.73;26.20;;;18.00;99.90;;;;;;5260592;27;20115;-59
2021/06/05 05:26:22;;;;;;;44.90;31.40;;;18.00;99.90;;;;;;5260559;27;20129;-62
2021/06/05 05:28:50;;;;;;;41.37;28.43;;;17.90;99.90;;;;;;5262570;27;20123;-59
2021/06/05 05:31:18;;;;;;;35.40;27.47;;;17.90;99.90;;;;;;5261906;27;20123;-61
2021/06/05 05:33:45;;;;;;;37.03;28.80;;;17.90;99.90;;;;;;5260532;27;20108;-59
2021/06/05 05:36:17;;;;;;;41.47;29.27;;;18.00;99.90;;;;;;5260738;27;20122;-60
2021/06/05 05:38:44;;;;;;;35.33;25.80;;;18.10;99.90;;;;;;5260516;27;20123;-59
2021/06/05 05:41:16;;;;;;;33.70;26.83;;;18.00;99.90;;;;;;5262583;27;20103;-60
2021/06/05 05:43:43;;;;;;;34.53;26.67;;;17.90;99.90;;;;;;5262466;27;20123;-63
2021/06/05 05:46:10;;;;;;;29.27;24.50;;;17.80;99.90;;;;;;5260407;27;20126;-62
2021/06/05 05:48:37;;;;;;;28.67;22.47;;;18.00;99.90;;;;;;5261068;27;20549;-60
2021/06/05 05:51:08;;;;;;;31.63;23.57;;;18.10;99.90;;;;;;5261728;27;20477;-59
2021/06/05 05:53:36;;;;;;;37.20;27.97;;;18.10;99.90;;;;;;5261131;27;20172;-61
2021/06/05 05:56:06;;;;;;;36.77;28.53;;;18.00;99.90;;;;;;5260601;27;20122;-61
2021/06/05 05:58:36;;;;;;;40.37;30.37;;;18.10;99.90;;;;;;5261174;27;20118;-59
2021/06/05 06:01:02;;;;;;;39.83;31.23;;;17.90;99.90;;;;;;5260465;27;20107;-60
2021/06/05 06:03:31;;;;;;;37.17;28.87;;;18.00;99.90;;;;;;5260497;27;20107;-59
2021/06/05 06:05:57;;;;;;;36.57;28.97;;;18.10;99.90;;;;;;5260574;27;20107;-60
2021/06/05 06:08:27;;;;;;;43.77;33.90;;;18.10;99.90;;;;;;5260430;27;20142;-62
2021/06/05 06:10:55;;;;;;;32.27;27.30;;;17.90;99.90;;;;;;5262985;27;20177;-59
2021/06/05 06:13:22;;;;;;;36.40;28.10;;;18.10;99.90;;;;;;5260042;27;20111;-59
2021/06/05 06:15:52;;;;;;;30.63;25.33;;;18.20;99.90;;;;;;5260409;27;20149;-59
2021/06/05 06:18:19;;;;;;;36.33;28.53;;;18.30;99.90;;;;;;5260346;27;20148;-61
2021/06/05 06:20:50;;;;;;;35.07;28.37;;;18.10;99.90;;;;;;5260880;27;20154;-59
2021/06/05 06:23:20;;;;;;;28.43;25.00;;;18.10;99.90;;;;;;5260092;27;20123;-60
2021/06/05 06:25:49;;;;;;;31.30;26.03;;;18.30;99.90;;;;;;5260214;27;20460;-59
2021/06/05 06:28:21;;;;;;;29.23;24.33;;;18.20;99.90;;;;;;5260432;27;20121;-62
2021/06/05 06:30:50;;;;;;;24.60;21.63;;;18.70;99.90;;;;;;5259665;27;20146;-62
2021/06/05 06:33:17;;;;;;;27.20;24.03;;;18.70;99.90;;;;;;5259982;27;20107;-59
2021/06/05 06:35:44;;;;;;;27.03;24.13;;;18.70;99.90;;;;;;5262199;27;20122;-62
2021/06/05 06:38:21;;;;;;;32.57;26.83;;;18.70;99.90;;;;;;5260352;27;20170;-63
2021/06/05 06:40:49;;;;;;;32.57;26.97;;;18.40;99.90;;;;;;5261711;27;20122;-60
2021/06/05 06:43:19;;;;;;;27.33;23.57;;;18.60;99.90;;;;;;5260399;27;20107;-58
2021/06/05 06:45:45;;;;;;;25.90;22.03;;;18.80;99.90;;;;;;5261207;27;20107;-59
2021/06/05 06:48:14;;;;;;;24.43;21.57;;;19.00;99.90;;;;;;5260368;27;20107;-60
2021/06/05 06:50:40;;;;;;;22.90;19.80;;;18.90;99.90;;;;;;5260101;27;20108;-60
2021/06/05 06:53:07;;;;;;;21.47;19.17;;;19.00;99.90;;;;;;5261110;27;20122;-60
2021/06/05 06:55:33;;;;;;;22.73;20.33;;;19.20;99.90;;;;;;5260395;27;20123;-60
2021/06/05 06:58:00;;;;;;;23.47;20.93;;;19.30;99.90;;;;;;5261899;27;20111;-62
2021/06/05 07:00:30;;;;;;;20.37;18.27;;;19.10;99.90;;;;;;5261468;27;20118;-60
2021/06/05 07:02:57;;;;;;;19.23;17.23;;;19.20;99.90;;;;;;5261785;27;20103;-60
2021/06/05 07:05:25;;;;;;;17.90;16.10;;;19.10;99.90;;;;;;5261366;27;20432;-59
2021/06/05 07:07:51;;;;;;;18.30;16.30;;;19.20;99.90;;;;;;5263322;27;20138;-60
2021/06/05 07:10:22;;;;;;;19.17;16.57;;;19.30;99.90;;;;;;5260534;27;20135;-59
2021/06/05 07:12:48;;;;;;;17.40;15.43;;;19.00;99.90;;;;;;5261425;27;20502;-60
2021/06/05 07:15:15;;;;;;;16.37;14.67;;;18.70;99.90;;;;;;5260535;27;20154;-63
2021/06/05 07:17:41;;;;;;;19.63;16.37;;;18.60;99.90;;;;;;5260765;27;20103;-59
2021/06/05 07:20:09;;;;;;;19.97;16.80;;;18.50;99.90;;;;;;5260199;27;20115;-62
2021/06/05 07:22:36;;;;;;;16.90;15.20;;;18.30;99.90;;;;;;5261944;27;20216;-60
2021/06/05 07:25:04;;;;;;;15.77;14.27;;;18.60;99.90;;;;;;5260709;27;20166;-60
2021/06/05 07:27:32;;;;;;;18.43;16.53;;;18.80;99.90;;;;;;5261457;27;20115;-59
2021/06/05 07:29:58;;;;;;;16.20;14.33;;;18.40;99.90;;;;;;5261817;27;20126;-58
2021/06/05 07:32:26;;;;;;;13.33;12.10;;;18.40;99.90;;;;;;5261326;27;20143;-62
2021/06/05 07:34:52;;;;;;;13.93;12.43;;;18.70;99.90;;;;;;5261241;27;20107;-61
2021/06/05 07:37:20;;;;;;;15.33;12.90;;;18.80;99.90;;;;;;5261266;27;20139;-60
2021/06/05 07:39:50;;;;;;;17.47;15.67;;;18.90;99.90;;;;;;5261310;27;20492;-59
2021/06/05 07:42:17;;;;;;;15.90;14.27;;;18.60;99.90;;;;;;5261447;27;20587;-61
2021/06/05 07:44:43;;;;;;;15.33;13.70;;;18.60;99.90;;;;;;5261237;27;20130;-60
2021/06/05 07:47:12;;;;;;;15.10;13.37;;;18.50;99.90;;;;;;5261337;27;20141;-61
2021/06/05 07:49:40;;;;;;;15.67;13.97;;;18.40;99.90;;;;;;5261460;27;20116;-61
2021/06/05 07:52:10;;;;;;;14.77;13.27;;;18.60;99.90;;;;;;5261237;27;20127;-60
2021/06/05 07:54:37;;;;;;;17.17;15.00;;;18.50;99.90;;;;;;5261069;27;20107;-61
2021/06/05 07:57:06;;;;;;;15.73;13.90;;;18.40;99.90;;;;;;5261890;27;20130;-61
2021/06/05 07:59:32;;;;;;;16.90;15.13;;;18.40;99.90;;;;;;5261312;27;20579;-61
2021/06/05 08:01:58;;;;;;;17.17;15.47;;;18.40;99.90;;;;;;5260628;27;20119;-60
2021/06/05 08:04:25;;;;;;;15.00;13.50;;;18.30;99.90;;;;;;5260095;27;20482;-58
2021/06/05 08:06:54;;;;;;;18.00;16.20;;;18.30;99.90;;;;;;5260729;27;20106;-59
2021/06/05 08:09:21;;;;;;;17.73;15.93;;;18.00;99.90;;;;;;5261058;27;20119;-60
2021/06/05 08:11:47;;;;;;;14.97;13.57;;;18.20;99.90;;;;;;5261406;27;20512;-60
2021/06/05 08:14:15;;;;;;;17.90;15.87;;;18.30;99.90;;;;;;5263591;27;20165;-61
2021/06/05 08:16:41;;;;;;;15.13;13.60;;;18.30;99.90;;;;;;5260891;27;20121;-60
2021/06/05 08:19:09;;;;;;;18.40;16.50;;;18.60;99.90;;;;;;5258850;27;20715;-62
2021/06/05 08:21:40;;;;;;;17.37;15.57;;;18.20;99.90;;;;;;5259910;27;20137;-60
2021/06/05 08:24:07;;;;;;;15.80;14.13;;;18.40;99.90;;;;;;5261003;27;20142;-60
2021/06/05 08:26:34;;;;;;;18.80;14.20;;;18.40;99.90;;;;;;5260426;27;20107;-60
2021/06/05 08:29:00;;;;;;;17.73;15.90;;;18.70;99.90;;;;;;5260404;27;20182;-59
2021/06/05 08:31:28;;;;;;;19.37;16.57;;;18.60;99.90;;;;;;5260077;27;20107;-61
2021/06/05 08:33:55;;;;;;;19.30;16.90;;;18.50;99.90;;;;;;5261300;27;20259;-63
2021/06/05 08:36:26;;;;;;;15.17;13.43;;;18.40;99.90;;;;;;5260207;27;20134;-60
2021/06/05 08:38:53;;;;;;;17.43;15.73;;;18.70;99.90;;;;;;5260426;27;20107;-60
2021/06/05 08:41:26;;;;;;;19.57;17.57;;;18.40;99.90;;;;;;5260284;27;20123;-61
2021/06/05 08:44:18;;;;;;;15.70;14.10;;;18.30;99.90;;;;;;5258796;27;20103;-61
2021/06/05 08:47:27;;;;;;;14.47;12.97;;;18.90;99.90;;;;;;5260352;27;20111;-61
2021/06/05 08:49:54;;;;;;;13.70;12.30;;;19.50;99.90;;;;;;5175187;27;20133;-61
2021/06/05 08:52:34;;;;;;;14.33;12.93;;;19.90;99.90;;;;;;5172582;27;20125;-63
2021/06/05 08:55:07;;;;;;;12.63;11.40;;;20.00;99.90;;;;;;5173765;27;20159;-61
2021/06/05 08:57:36;;;;;;;14.03;12.57;;;20.00;99.90;;;;;;5172707;27;20108;-61
2021/06/05 09:00:17;;;;;;;13.47;12.17;;;19.50;99.90;;;;;;5173063;27;20108;-60
2021/06/05 09:02:49;;;;;;;14.40;12.97;;;19.50;99.90;;;;;;5173146;27;20112;-60
2021/06/05 09:05:21;;;;;;;12.00;10.90;;;19.70;99.90;;;;;;5173705;27;20503;-61
2021/06/05 09:07:47;;;;;;;14.07;12.47;;;19.50;99.90;;;;;;5174122;27;20541;-60
2021/06/05 09:10:18;;;;;;;13.97;11.00;;;19.60;99.90;;;;;;5172506;27;20108;-59
2021/06/05 09:12:44;;;;;;;11.83;10.73;;;19.60;99.90;;;;;;5172941;27;20252;-61
2021/06/05 09:15:20;;;;;;;12.70;11.50;;;19.60;99.90;;;;;;5173001;27;20581;-60
2021/06/05 09:17:49;;;;;;;13.43;12.17;;;19.60;99.90;;;;;;5172349;27;20127;-59
2021/06/05 09:20:25;;;;;;;11.97;10.70;;;19.60;99.90;;;;;;5172138;27;20169;-62
2021/06/05 09:22:53;;;;;;;15.60;13.97;;;19.50;99.90;;;;;;5170186;27;20148;-59
2021/06/05 09:25:26;;;;;;;16.90;15.10;;;19.40;99.90;;;;;;5170610;27;20159;-60
2021/06/05 09:27:53;;;;;;;16.73;15.03;;;19.30;99.90;;;;;;5256233;27;20127;-60
2021/06/05 09:30:32;;;;;;;20.90;18.77;;;19.30;99.90;;;;;;5260247;27;20108;-59
2021/06/05 09:33:03;;;;;;;21.73;19.57;;;18.90;99.90;;;;;;5260166;27;20103;-60
2021/06/05 09:35:34;;;;;;;20.63;18.73;;;18.90;99.90;;;;;;5260305;27;20107;-61
2021/06/05 09:38:25;;;;;;;23.23;20.53;;;19.00;99.90;;;;;;5260491;27;20107;-62
2021/06/05 09:41:03;;;;;;;20.43;18.37;;;19.20;99.90;;;;;;5259911;27;20165;-60
2021/06/05 09:43:39;;;;;;;24.27;21.77;;;19.20;99.90;;;;;;5259947;27;20107;-61
2021/06/05 09:46:36;;;;;;;24.97;22.67;;;19.00;99.90;;;;;;5260120;27;20107;-61
2021/06/05 09:49:18;;;;;;;23.67;21.20;;;19.00;99.90;;;;;;5260536;27;20161;-58
2021/06/05 09:51:58;;;;;;;24.30;21.73;;;19.00;99.90;;;;;;5260433;27;20528;-59
2021/06/05 09:54:30;;;;;;;26.27;23.67;;;19.20;99.90;;;;;;5260525;27;20118;-60
2021/06/05 09:57:19;;;;;;;25.33;22.77;;;19.20;99.90;;;;;;5262035;27;20500;-60
2021/06/05 09:59:59;;;;;;;24.07;21.70;;;19.60;99.90;;;;;;5262259;27;20490;-60
2021/06/05 10:02:27;;;;;;;22.43;19.93;;;20.20;99.90;;;;;;5260154;27;20138;-61
2021/06/05 10:05:15;;;;;;;24.73;22.13;;;20.60;99.90;;;;;;5260583;27;20122;-58
2021/06/05 10:07:42;;;;;;;22.90;20.60;;;20.60;99.90;;;;;;5261221;27;20148;-58
2021/06/05 10:10:14;;;;;;;21.37;19.33;;;21.20;99.90;;;;;;5260424;27;20123;-60
2021/06/05 10:12:43;;;;;;;22.93;20.83;;;21.20;99.90;;;;;;5260368;27;20119;-61
2021/06/05 10:15:12;;;;;;;24.03;21.63;;;21.20;99.90;;;;;;5259990;27;20123;-60
2021/06/05 10:17:47;;;;;;;22.73;20.53;;;21.10;99.90;;;;;;5259031;27;20139;-60
2021/06/05 10:20:36;;;;;;;23.33;21.17;;;21.80;99.90;;;;;;5260649;27;20146;-59
2021/06/05 10:23:03;;;;;;;18.93;17.00;;;22.20;99.90;;;;;;5260225;27;20200;-61
2021/06/05 10:25:33;;;;;;;23.00;20.87;;;23.80;99.90;;;;;;5260545;27;20193;-60
2021/06/05 10:28:04;;;;;;;25.53;23.07;;;23.30;99.00;;;;;;5261391;27;20122;-61
2021/06/05 10:30:39;;;;;;;26.20;23.70;;;23.40;98.70;;;;;;5260624;27;20107;-61
2021/06/05 10:33:12;;;;;;;25.93;23.23;;;22.80;99.00;;;;;;5261876;27;20195;-60
2021/06/05 10:35:42;;;;;;;27.07;24.47;;;23.40;98.90;;;;;;5263152;27;20122;-59
2021/06/05 10:38:13;;;;;;;25.07;22.70;;;22.80;99.70;;;;;;5261456;27;20104;-60
2021/06/05 10:40:40;;;;;;;21.83;19.60;;;23.10;99.00;;;;;;5264063;27;20118;-63
2021/06/05 10:43:14;;;;;;;23.60;21.40;;;23.20;99.30;;;;;;5261502;27;20139;-61
2021/06/05 10:45:43;;;;;;;24.67;22.40;;;23.00;99.10;;;;;;5262942;27;20432;-62
2021/06/05 10:48:23;;;;;;;26.17;23.57;;;23.20;99.60;;;;;;5262283;27;20525;-60
2021/06/05 10:51:00;;;;;;;26.70;24.00;;;23.60;98.80;;;;;;5261675;27;20124;-61
2021/06/05 10:53:30;;;;;;;29.47;26.60;;;23.50;98.40;;;;;;5262053;27;20107;-61
2021/06/05 10:55:59;;;;;;;31.17;28.27;;;23.70;97.90;;;;;;5264058;27;20119;-61
2021/06/05 10:58:39;;;;;;;32.33;29.10;;;23.00;98.70;;;;;;5260223;27;20193;-60
2021/06/05 11:01:09;;;;;;;32.40;29.03;;;22.90;99.40;;;;;;5261156;27;20138;-60
2021/06/05 11:03:53;;;;;;;31.07;27.87;;;22.80;99.90;;;;;;5260845;27;20147;-60
2021/06/05 11:06:24;;;;;;;30.23;27.23;;;22.90;99.90;;;;;;5261192;27;20440;-59
2021/06/05 11:09:07;;;;;;;35.73;31.83;;;23.30;99.90;;;;;;5261269;27;20107;-61
2021/06/05 11:11:48;;;;;;;42.17;34.93;;;23.30;99.30;;;;;;5263889;27;20121;-60
2021/06/05 11:14:53;;;;;;;45.33;36.13;;;23.20;99.40;;;;;;5261833;27;20115;-61
2021/06/05 11:17:36;;;;;;;43.13;33.47;;;22.90;99.20;;;;;;5260784;27;20115;-60
2021/06/05 11:20:31;;;;;;;47.30;35.50;;;22.40;99.90;;;;;;5263163;27;20100;-60
2021/06/05 11:26:41;;;;;;;43.90;34.97;;;21.70;99.90;;;;;;5172289;27;20179;-60
2021/06/05 11:29:46;;;;;;;46.27;36.33;;;21.80;99.90;;;;;;5090894;28;20107;-60
2021/06/05 11:32:33;;;;;;;47.00;34.37;;;21.90;99.90;;;;;;5091275;28;20523;-60
2021/06/05 11:35:09;;;;;;;46.83;32.80;;;21.90;99.90;;;;;;5091007;28;20105;-60
2021/06/05 11:38:01;;;;;;;46.63;34.03;;;21.60;99.90;;;;;;5091761;28;20185;-60
2021/06/05 11:41:00;;;;;;;42.17;31.47;;;21.70;99.90;;;;;;5092050;28;20130;-59
2021/06/05 11:43:51;;;;;;;41.90;30.20;;;21.80;99.90;;;;;;5091623;28;20146;-59
2021/06/05 11:46:41;;;;;;;36.53;27.50;;;21.90;99.90;;;;;;5091190;28;20124;-60
2021/06/05 11:49:09;;;;;;;30.73;24.07;;;21.80;99.90;;;;;;5051004;28;20480;-59
2021/06/05 11:51:41;;;;;;;26.57;22.00;;;21.70;99.90;;;;;;5052320;28;20162;-60
2021/06/05 11:54:22;;;;;;;27.90;21.43;;;21.60;99.90;;;;;;5051895;28;20145;-60
2021/06/05 11:56:57;;;;;;;24.77;20.83;;;21.40;99.90;;;;;;5050471;28;20627;-59
2021/06/05 11:59:28;;;;;;;24.87;19.63;;;21.30;99.90;;;;;;5051007;28;20129;-60
2021/06/05 12:02:06;;;;;;;24.77;20.50;;;21.50;99.90;;;;;;5052831;28;20155;-59
2021/06/05 12:04:39;;;;;;;24.80;19.23;;;21.70;99.90;;;;;;5195821;27;20154;-59
2021/06/05 12:07:25;;;;;;;26.37;20.43;;;21.80;99.90;;;;;;5195464;27;20793;-58
2021/06/05 12:10:00;;;;;;;26.70;20.40;;;21.80;99.90;;;;;;5195804;27;20576;-62
2021/06/05 12:12:57;;;;;;;27.47;20.30;;;21.80;99.90;;;;;;5194551;27;20132;-61
2021/06/05 12:15:46;;;;;;;29.23;20.67;;;21.70;99.90;;;;;;5194470;27;20544;-59
2021/06/05 12:18:23;;;;;;;26.73;20.80;;;21.50;99.90;;;;;;5194055;27;20127;-59
2021/06/05 12:20:59;;;;;;;23.13;18.67;;;21.30;99.90;;;;;;5200668;27;20146;-59
2021/06/05 12:23:30;;;;;;;26.50;20.07;;;21.20;99.90;;;;;;5263394;27;20134;-61
2021/06/05 12:26:04;;;;;;;33.20;20.77;;;21.20;99.90;;;;;;5263339;27;20522;-59
2021/06/05 12:28:35;;;;;;;29.97;20.57;;;21.40;99.90;;;;;;5261176;27;20107;-62
2021/06/05 12:31:36;;;;;;;26.27;20.47;;;21.30;99.90;;;;;;5261275;27;20108;-60
2021/06/05 12:34:07;;;;;;;25.63;20.43;;;21.30;99.90;;;;;;5262065;27;20134;-60
2021/06/05 12:36:37;;;;;;;31.77;23.63;;;21.10;99.90;;;;;;5260755;27;20157;-59
2021/06/05 12:39:18;;;;;;;26.60;22.17;;;21.00;99.90;;;;;;5261427;27;20130;-59
2021/06/05 12:41:48;;;;;;;27.93;22.77;;;21.00;99.90;;;;;;5261052;27;20538;-60
2021/06/05 12:44:21;;;;;;;29.43;22.87;;;21.00;99.90;;;;;;5260346;27;20431;-60
2021/06/05 12:46:48;;;;;;;27.00;21.80;;;21.00;99.90;;;;;;5261135;27;20127;-60
2021/06/05 12:49:34;;;;;;;28.83;22.20;;;21.10;99.90;;;;;;5260226;27;20119;-60